Time;durP1;ratioP1;P1;durP2;ratioP2;P2;SDS_P1;SDS_P2;PMS_P1;PMS_P2;Temp;Humidity;BMP_temperature;BMP_pressure;BME280_temperature;BME280_humidity;BME280_pressure;Samples;Min_cycle;Max_cycle;Signal;HPM_P1;HPM_P2
2023/07/04 00:01:38;;;;;;;;;;;;;;;29.74;35.42;94246.25;4982197;28;7243;-61
2023/07/04 00:04:07;;;;;;;;;;;;;;;29.74;34.77;94242.72;4965161;28;7545;-62
2023/07/04 00:06:43;;;;;;;;;;;;;;;29.73;35.24;94246.75;4982659;28;7486;-62
2023/07/04 00:09:19;;;;;;;;;;;;;;;29.72;35.29;94248.03;4982821;28;7065;-62
2023/07/04 00:11:52;;;;;;;;;;;;;;;29.75;34.47;94249.78;4967318;28;7238;-62
2023/07/04 00:14:23;;;;;;;;;;;;;;;29.74;35.00;94245.50;4982386;28;7312;-62
2023/07/04 00:17:19;;;;;;;;;;;;;;;29.74;35.33;94245.50;5002467;28;7232;-61
2023/07/04 00:19:48;;;;;;;;;;;;;;;29.72;34.12;94240.47;4991225;28;8992;-62
2023/07/04 00:22:25;;;;;;;;;;;;;;;29.72;34.77;94242.50;4975200;28;9504;-62
2023/07/04 00:25:05;;;;;;;;;;;;;;;29.71;35.02;94249.34;4988480;28;7416;-62
2023/07/04 00:27:32;;;;;;;;;;;;;;;29.72;34.45;94236.94;4966988;28;9907;-62
2023/07/04 00:29:58;;;;;;;;;;;;;;;29.72;34.62;94242.50;4982622;28;7440;-62
2023/07/04 00:32:25;;;;;;;;;;;;;;;29.67;34.78;94246.88;4995160;28;9770;-62
2023/07/04 00:34:53;;;;;;;;;;;;;;;29.69;34.28;94241.53;4964872;28;7255;-62
2023/07/04 00:37:43;;;;;;;;;;;;;;;29.70;34.77;94240.28;4965340;28;9796;-62
2023/07/04 00:40:40;;;;;;;;;;;;;;;29.70;34.29;94242.28;4973389;28;8790;-62
2023/07/04 00:43:12;;;;;;;;;;;;;;;29.69;34.43;94243.56;4916732;28;9128;-61
2023/07/04 00:46:09;;;;;;;;;;;;;;;29.70;34.35;94250.63;4909890;29;7185;-61
2023/07/04 00:48:39;;;;;;;;;;;;;;;29.68;34.03;94244.88;4895150;29;7172;-61
2023/07/04 00:51:09;;;;;;;;;;;;;;;29.68;34.61;94248.38;4884368;29;7043;-61
2023/07/04 00:53:35;;;;;;;;;;;;;;;29.69;33.81;94247.09;4890154;29;7208;-61
2023/07/04 00:56:01;;;;;;;;;;;;;;;29.69;34.14;94240.78;4867166;29;7018;-61
2023/07/04 00:58:28;;;;;;;;;;;;;;;29.71;33.94;94243.78;4874636;29;7223;-61
2023/07/04 01:00:55;;;;;;;;;;;;;;;29.69;34.71;94238.78;4854771;29;7248;-60
2023/07/04 01:03:24;;;;;;;;;;;;;;;29.69;34.69;94241.53;4895331;29;7350;-61
2023/07/04 01:06:11;;;;;;;;;;;;;;;29.68;34.17;94242.09;4893541;29;6931;-61
2023/07/04 01:08:56;;;;;;;;;;;;;;;29.69;34.79;94249.13;4893950;29;7319;-61
2023/07/04 01:11:42;;;;;;;;;;;;;;;29.65;33.97;94243.91;4893796;29;7470;-61
2023/07/04 01:14:21;;;;;;;;;;;;;;;29.68;34.43;94247.63;4889523;29;9275;-61
2023/07/04 01:17:02;;;;;;;;;;;;;;;29.67;34.43;94255.19;4892675;29;7180;-61
2023/07/04 01:19:46;;;;;;;;;;;;;;;29.66;34.10;94253.72;4921196;28;9172;-61
2023/07/04 01:22:12;;;;;;;;;;;;;;;29.67;34.44;94248.91;4951549;28;7208;-61
2023/07/04 01:25:02;;;;;;;;;;;;;;;29.66;34.08;94255.75;4962484;28;9143;-61
2023/07/04 01:27:38;;;;;;;;;;;;;;;29.65;33.77;94248.72;4983667;28;7092;-61
2023/07/04 01:30:10;;;;;;;;;;;;;;;29.64;33.89;94248.00;4985004;28;8389;-61
2023/07/04 01:32:56;;;;;;;;;;;;;;;29.65;33.94;94252.22;5001103;28;7256;-61
2023/07/04 01:35:29;;;;;;;;;;;;;;;29.63;33.60;94245.75;4983959;28;7794;-61
2023/07/04 01:38:07;;;;;;;;;;;;;;;29.64;33.93;94248.00;4987274;28;8807;-60
2023/07/04 01:40:37;;;;;;;;;;;;;;;29.64;34.13;94245.22;4968472;28;9934;-60
2023/07/04 01:43:08;;;;;;;;;;;;;;;29.64;34.23;94247.25;4983013;28;7119;-60
2023/07/04 01:45:34;;;;;;;;;;;;;;;29.64;34.15;94245.22;4982544;28;8951;-61
2023/07/04 01:48:10;;;;;;;;;;;;;;;29.67;33.73;94246.13;4965433;28;7189;-60
2023/07/04 01:50:35;;;;;;;;;;;;;;;29.63;34.76;94240.19;4965784;28;6986;-60
2023/07/04 01:53:09;;;;;;;;;;;;;;;29.64;33.92;94250.00;4967241;28;9526;-61
2023/07/04 01:55:48;;;;;;;;;;;;;;;29.64;34.33;94241.69;4999471;28;7375;-61
2023/07/04 01:58:28;;;;;;;;;;;;;;;29.63;34.56;94245.75;4983881;28;6992;-60
2023/07/04 02:01:09;;;;;;;;;;;;;;;29.62;34.51;94247.03;4981616;28;7235;-61
2023/07/04 02:04:03;;;;;;;;;;;;;;;29.61;34.49;94246.28;5001412;28;8150;-61
2023/07/04 02:06:29;;;;;;;;;;;;;;;29.61;33.62;94248.31;4972269;28;7525;-60
2023/07/04 02:08:58;;;;;;;;;;;;;;;29.61;34.59;94253.84;4982646;28;6997;-61
2023/07/04 02:11:38;;;;;;;;;;;;;;;29.59;34.64;94256.44;4982218;28;7073;-60
2023/07/04 02:14:13;;;;;;;;;;;;;;;29.58;34.60;94252.19;4982189;28;7138;-61
2023/07/04 02:16:58;;;;;;;;;;;;;;;29.60;34.95;94250.34;5002567;28;7004;-61
2023/07/04 02:19:53;;;;;;;;;;;;;;;29.61;34.52;94251.84;4987392;28;6983;-61
2023/07/04 02:22:33;;;;;;;;;;;;;;;29.59;34.09;94250.88;4935357;29;8229;-61
2023/07/04 02:25:02;;;;;;;;;;;;;;;29.57;34.31;94250.69;4919478;29;6870;-60
2023/07/04 02:27:28;;;;;;;;;;;;;;;29.60;34.37;94252.38;4934943;29;7116;-61
2023/07/04 02:30:05;;;;;;;;;;;;;;;29.60;34.51;94255.88;4934924;29;9213;-61
2023/07/04 02:32:47;;;;;;;;;;;;;;;29.58;34.34;94255.69;4935123;29;9424;-61
2023/07/04 02:35:58;;;;;;;;;;;;;;;29.59;34.40;94259.19;4919180;29;7375;-61
2023/07/04 02:38:40;;;;;;;;;;;;;;;29.58;35.03;94254.94;4935092;29;7284;-60
2023/07/04 02:41:10;;;;;;;;;;;;;;;29.56;34.19;94252.69;4934197;28;9244;-61
2023/07/04 02:43:37;;;;;;;;;;;;;;;29.58;34.23;94257.72;4934459;29;7225;-60
2023/07/04 02:46:16;;;;;;;;;;;;;;;29.56;34.35;94255.47;4917976;29;9159;-61
2023/07/04 02:48:52;;;;;;;;;;;;;;;29.55;34.56;94256.03;4928975;29;7330;-61
2023/07/04 02:51:23;;;;;;;;;;;;;;;29.54;35.10;94262.84;4934088;29;7188;-61
2023/07/04 02:54:06;;;;;;;;;;;;;;;29.54;33.90;94252.50;4934747;29;7831;-61
2023/07/04 02:56:34;;;;;;;;;;;;;;;29.53;34.43;94253.06;4934489;29;6999;-61
2023/07/04 02:59:11;;;;;;;;;;;;;;;29.53;34.10;94248.25;4950526;28;9051;-61
2023/07/04 03:01:39;;;;;;;;;;;;;;;29.51;34.57;94250.06;4970714;28;7071;-60
2023/07/04 03:04:24;;;;;;;;;;;;;;;29.53;34.12;94255.81;4982751;28;9045;-61
2023/07/04 03:06:53;;;;;;;;;;;;;;;29.50;34.30;94254.88;4969742;28;7006;-61
2023/07/04 03:09:20;;;;;;;;;;;;;;;29.49;34.21;94249.88;4984307;28;7231;-62
2023/07/04 03:11:48;;;;;;;;;;;;;;;29.52;35.18;94251.53;4970126;28;9125;-61
2023/07/04 03:14:35;;;;;;;;;;;;;;;29.51;35.47;94250.81;4971800;28;6860;-61
2023/07/04 03:17:03;;;;;;;;;;;;;;;29.49;35.02;94247.09;4988164;28;9386;-61
2023/07/04 03:19:28;;;;;;;;;;;;;;;29.49;34.26;94247.81;5002858;28;8736;-61
2023/07/04 03:22:04;;;;;;;;;;;;;;;29.52;35.25;94246.00;4968826;28;7034;-61
2023/07/04 03:24:37;;;;;;;;;;;;;;;29.48;34.98;94235.28;4969473;28;7231;-61
2023/07/04 03:27:14;;;;;;;;;;;;;;;29.51;35.15;94247.31;4982546;28;7297;-61
2023/07/04 03:29:59;;;;;;;;;;;;;;;29.50;35.42;94243.03;4988517;28;7224;-62
2023/07/04 03:32:25;;;;;;;;;;;;;;;29.49;35.12;94242.28;4982432;28;7000;-61
2023/07/04 03:35:01;;;;;;;;;;;;;;;29.53;34.35;94239.19;4967773;28;7084;-62
2023/07/04 03:37:32;;;;;;;;;;;;;;;29.52;35.19;94241.22;4972549;28;7003;-61
2023/07/04 03:40:00;;;;;;;;;;;;;;;29.50;34.34;94249.31;4983271;28;7591;-62
2023/07/04 03:42:29;;;;;;;;;;;;;;;29.51;34.30;94239.00;4963933;28;7202;-61
2023/07/04 03:44:57;;;;;;;;;;;;;;;29.53;34.86;94248.25;4980181;28;8794;-62
2023/07/04 03:47:23;;;;;;;;;;;;;;;29.51;34.96;94250.81;4981172;28;7171;-62
2023/07/04 03:49:48;;;;;;;;;;;;;;;29.51;34.73;94244.53;4980194;28;7427;-62
2023/07/04 03:52:52;;;;;;;;;;;;;;;29.51;35.24;94247.31;4985712;28;7213;-61
2023/07/04 03:55:30;;;;;;;;;;;;;;;29.48;34.81;94234.53;4961367;28;6998;-62
2023/07/04 03:57:58;;;;;;;;;;;;;;;29.49;35.33;94249.88;4971599;28;8815;-62
2023/07/04 04:00:54;;;;;;;;;;;;;;;29.51;35.46;94250.06;4970278;28;9276;-61
2023/07/04 04:03:38;;;;;;;;;;;;;;;29.45;34.70;94252.97;4874907;29;9267;-61
2023/07/04 04:06:08;;;;;;;;;;;;;;;29.46;35.58;94248.16;4887853;29;8362;-61
2023/07/04 04:09:04;;;;;;;;;;;;;;;29.47;34.52;94258.72;4905348;29;7081;-62
2023/07/04 04:11:31;;;;;;;;;;;;;;;29.44;35.51;94253.50;4908554;29;6996;-61
2023/07/04 04:14:00;;;;;;;;;;;;;;;29.47;34.98;94258.72;4908713;29;7272;-59
2023/07/04 04:16:25;;;;;;;;;;;;;;;29.46;35.51;94248.91;4905315;29;7071;-60
2023/07/04 04:19:07;;;;;;;;;;;;;;;29.48;35.02;94251.16;4901998;29;7248;-60
2023/07/04 04:21:59;;;;;;;;;;;;;;;29.46;34.79;94259.25;4907472;29;7019;-59
2023/07/04 04:24:28;;;;;;;;;;;;;;;29.43;35.51;94255.53;4897509;29;9006;-59
2023/07/04 04:27:08;;;;;;;;;;;;;;;29.44;35.15;94256.28;4906115;29;8848;-59
2023/07/04 04:29:43;;;;;;;;;;;;;;;29.38;35.56;94247.38;4896332;29;9145;-60
2023/07/04 04:32:22;;;;;;;;;;;;;;;29.41;34.91;94255.34;4891582;29;7166;-59
2023/07/04 04:34:48;;;;;;;;;;;;;;;29.41;35.38;94258.09;4911131;29;8845;-60
2023/07/04 04:37:16;;;;;;;;;;;;;;;29.40;35.18;94256.63;4904768;29;8821;-60
2023/07/04 04:39:49;;;;;;;;;;;;;;;29.33;35.83;94251.75;4928075;28;7109;-60
2023/07/04 04:42:28;;;;;;;;;;;;;;;29.40;35.27;94270.47;4983034;28;9530;-60
2023/07/04 04:44:59;;;;;;;;;;;;;;;29.38;35.30;94264.00;4968235;28;6990;-60
2023/07/04 04:47:33;;;;;;;;;;;;;;;29.39;35.32;94265.47;4971438;28;9162;-60
2023/07/04 04:50:02;;;;;;;;;;;;;;;29.38;35.08;94266.75;4996393;28;8256;-60
2023/07/04 04:52:45;;;;;;;;;;;;;;;29.41;34.85;94268.44;4958291;28;8784;-60
2023/07/04 04:55:23;;;;;;;;;;;;;;;29.38;35.48;94264.00;4984312;28;7011;-59
2023/07/04 04:57:52;;;;;;;;;;;;;;;29.39;35.76;94271.00;4981656;28;7228;-59
2023/07/04 05:00:37;;;;;;;;;;;;;;;29.33;35.04;94273.91;4966986;28;8824;-60
2023/07/04 05:03:08;;;;;;;;;;;;;;;29.33;35.58;94278.69;4964107;28;7264;-59
2023/07/04 05:05:41;;;;;;;;;;;;;;;29.33;35.54;94279.47;4998201;28;7364;-60
2023/07/04 05:08:18;;;;;;;;;;;;;;;29.36;35.56;94283.19;4965753;28;7491;-60
2023/07/04 05:10:44;;;;;;;;;;;;;;;29.35;36.01;94281.69;4987492;28;7140;-60
2023/07/04 05:13:12;;;;;;;;;;;;;;;29.34;35.96;94280.94;4984193;28;7215;-59
2023/07/04 05:16:02;;;;;;;;;;;;;;;29.41;35.92;94296.16;4998688;28;7078;-60
2023/07/04 05:18:36;;;;;;;;;;;;;;;29.39;35.68;94295.94;4968366;28;9083;-60
2023/07/04 05:21:32;;;;;;;;;;;;;;;29.39;36.73;94293.91;4997901;28;9109;-59
2023/07/04 05:24:17;;;;;;;;;;;;;;;29.37;35.84;94290.19;4947053;28;7266;-62
2023/07/04 05:26:45;;;;;;;;;;;;;;;29.35;35.98;94295.53;4929616;28;7135;-62
2023/07/04 05:29:13;;;;;;;;;;;;;;;29.36;35.63;94294.97;4945035;28;8763;-62
2023/07/04 05:31:39;;;;;;;;;;;;;;;29.36;36.46;94297.75;4944787;28;7263;-62
2023/07/04 05:34:05;;;;;;;;;;;;;;;29.39;36.44;94299.47;4943747;28;9468;-62
2023/07/04 05:36:37;;;;;;;;;;;;;;;29.39;36.14;94307.03;4930182;28;7199;-62
2023/07/04 05:39:16;;;;;;;;;;;;;;;29.38;36.28;94302.78;4948101;28;7195;-62
2023/07/04 05:42:11;;;;;;;;;;;;;;;29.36;36.55;94310.88;4949214;28;7166;-62
2023/07/04 05:44:39;;;;;;;;;;;;;;;29.37;36.57;94306.81;4958712;28;9358;-62
2023/07/04 05:47:05;;;;;;;;;;;;;;;29.39;36.35;94304.25;4943132;28;7495;-62
2023/07/04 05:49:40;;;;;;;;;;;;;;;29.38;35.90;94306.31;4935124;28;8414;-62
2023/07/04 05:52:06;;;;;;;;;;;;;;;29.39;36.85;94304.25;4937326;28;7235;-62
2023/07/04 05:54:35;;;;;;;;;;;;;;;29.37;36.27;94295.75;4945825;28;7257;-62
2023/07/04 05:57:03;;;;;;;;;;;;;;;29.38;36.04;94297.25;4927552;28;7345;-63
2023/07/04 05:59:46;;;;;;;;;;;;;;;29.37;36.66;94296.50;4940740;28;9247;-62
2023/07/04 06:02:23;;;;;;;;;;;;;;;29.40;36.22;94309.28;4966947;28;8613;-62
2023/07/04 06:04:49;;;;;;;;;;;;;;;29.40;36.03;94300.22;4968644;28;7471;-63
2023/07/04 06:07:29;;;;;;;;;;;;;;;29.43;36.17;94307.44;4966151;28;7211;-62
2023/07/04 06:10:00;;;;;;;;;;;;;;;29.44;36.11;94308.94;4994393;28;7382;-63
2023/07/04 06:12:26;;;;;;;;;;;;;;;29.44;35.87;94304.13;4964502;28;8204;-63
2023/07/04 06:14:52;;;;;;;;;;;;;;;29.44;35.89;94306.16;4970440;28;7425;-62
2023/07/04 06:17:27;;;;;;;;;;;;;;;29.43;35.31;94299.13;4980392;28;7263;-62
2023/07/04 06:19:56;;;;;;;;;;;;;;;29.44;36.26;94295.06;4980046;28;7015;-63
2023/07/04 06:22:22;;;;;;;;;;;;;;;29.43;36.02;94304.66;4981593;28;7086;-63
2023/07/04 06:25:07;;;;;;;;;;;;;;;29.39;36.37;94293.16;4983628;28;7185;-63
2023/07/04 06:27:44;;;;;;;;;;;;;;;29.42;36.12;94300.41;4967779;28;9295;-62
2023/07/04 06:30:46;;;;;;;;;;;;;;;29.42;35.90;94297.66;4984055;28;7131;-63
2023/07/04 06:33:18;;;;;;;;;;;;;;;29.40;38.77;94302.97;4973333;28;8187;-62
2023/07/04 06:35:53;;;;;;;;;;;;;;;29.43;37.76;94304.66;4965659;28;7230;-62
2023/07/04 06:38:29;;;;;;;;;;;;;;;29.46;37.59;94298.06;4968577;28;7352;-61
2023/07/04 06:41:00;;;;;;;;;;;;;;;29.41;37.14;94291.34;4982061;28;7222;-61
2023/07/04 06:43:33;;;;;;;;;;;;;;;29.43;36.60;94293.56;4979576;28;7238;-62
2023/07/04 06:46:10;;;;;;;;;;;;;;;29.41;36.26;94290.59;4998045;28;7240;-61
2023/07/04 06:48:51;;;;;;;;;;;;;;;29.42;36.38;94292.09;4996303;28;7244;-61
2023/07/04 06:51:19;;;;;;;;;;;;;;;29.40;35.98;94300.22;4972827;28;7329;-61
2023/07/04 06:53:51;;;;;;;;;;;;;;;29.40;36.35;94294.66;4969148;28;7108;-61
2023/07/04 06:56:47;;;;;;;;;;;;;;;29.43;36.61;94293.56;4983643;28;7356;-62
2023/07/04 06:59:24;;;;;;;;;;;;;;;29.38;36.52;94292.44;4971671;28;9106;-61
2023/07/04 07:01:51;;;;;;;;;;;;;;;29.38;35.56;94291.69;4971782;28;6992;-61
2023/07/04 07:04:19;;;;;;;;;;;;;;;29.36;36.43;94294.25;4982992;28;8952;-61
2023/07/04 07:06:49;;;;;;;;;;;;;;;29.36;36.68;94289.44;4982033;28;7001;-61
2023/07/04 07:09:17;;;;;;;;;;;;;;;29.36;36.72;94294.25;4984046;28;7326;-62
2023/07/04 07:11:55;;;;;;;;;;;;;;;29.36;36.19;94294.25;4969154;28;7252;-62
2023/07/04 07:14:41;;;;;;;;;;;;;;;29.36;36.17;94297.75;4976385;28;6957;-62
2023/07/04 07:17:18;;;;;;;;;;;;;;;29.34;36.89;94296.84;5001282;28;8711;-61
2023/07/04 07:19:59;;;;;;;;;;;;;;;29.37;37.10;94295.75;5002205;28;7248;-62
2023/07/04 07:22:36;;;;;;;;;;;;;;;29.39;36.36;94293.91;5000004;28;7351;-62
2023/07/04 07:25:04;;;;;;;;;;;;;;;29.39;36.17;94295.94;5002227;28;7226;-61
2023/07/04 07:27:33;;;;;;;;;;;;;;;29.41;37.23;94290.59;4969892;28;6993;-61
2023/07/04 07:30:28;;;;;;;;;;;;;;;29.41;36.79;94291.34;4972335;28;9091;-62
2023/07/04 07:32:55;;;;;;;;;;;;;;;29.39;36.58;94288.38;4934811;28;7351;-62
2023/07/04 07:35:31;;;;;;;;;;;;;;;29.37;37.11;94287.44;4948979;28;7332;-62
2023/07/04 07:38:07;;;;;;;;;;;;;;;29.41;36.43;94298.91;4927718;28;8828;-62
2023/07/04 07:40:58;;;;;;;;;;;;;;;29.38;37.50;94298.00;4931345;28;7018;-62
2023/07/04 07:43:25;;;;;;;;;;;;;;;29.37;36.16;94295.75;4935659;28;7591;-62
2023/07/04 07:45:57;;;;;;;;;;;;;;;29.39;37.11;94298.72;4953074;28;7199;-63
2023/07/04 07:48:26;;;;;;;;;;;;;;;29.38;36.73;94300.00;4950674;28;7066;-63
2023/07/04 07:51:16;;;;;;;;;;;;;;;29.37;36.64;94292.97;4952319;28;8578;-62
2023/07/04 07:53:44;;;;;;;;;;;;;;;29.37;36.75;94290.19;4950695;28;7189;-63
2023/07/04 07:56:13;;;;;;;;;;;;;;;29.36;36.29;94289.44;4944964;28;6977;-63
2023/07/04 07:58:49;;;;;;;;;;;;;;;29.36;36.66;94283.19;4936058;28;9207;-63
2023/07/04 08:01:18;;;;;;;;;;;;;;;29.36;36.29;94285.94;4929588;28;9751;-63
2023/07/04 08:03:47;;;;;;;;;;;;;;;29.35;36.43;94284.44;4944645;28;6948;-63
2023/07/04 08:06:32;;;;;;;;;;;;;;;29.36;36.37;94272.09;4935985;28;8731;-63
2023/07/04 08:09:01;;;;;;;;;;;;;;;29.37;36.35;94270.81;4962114;28;8271;-63
2023/07/04 08:11:31;;;;;;;;;;;;;;;29.34;36.61;94269.13;4985239;28;6972;-63
2023/07/04 08:14:06;;;;;;;;;;;;;;;29.36;35.98;94266.56;4982846;28;8804;-63
2023/07/04 08:16:50;;;;;;;;;;;;;;;29.38;35.99;94275.06;4984468;28;7854;-63
2023/07/04 08:19:34;;;;;;;;;;;;;;;29.38;35.33;94275.06;4984200;28;7080;-63
2023/07/04 08:22:10;;;;;;;;;;;;;;;29.36;35.90;94261.03;4984759;28;6876;-63
2023/07/04 08:24:38;;;;;;;;;;;;;;;29.35;35.90;94265.06;4974828;28;9019;-63
2023/07/04 08:27:07;;;;;;;;;;;;;;;29.36;36.06;94263.78;4967170;28;7196;-64
2023/07/04 08:29:39;;;;;;;;;;;;;;;29.35;36.20;94271.34;4968116;28;7257;-63
2023/07/04 08:32:18;;;;;;;;;;;;;;;29.35;36.51;94270.59;4969729;28;9403;-63
2023/07/04 08:34:49;;;;;;;;;;;;;;;29.34;36.23;94269.84;4984420;28;7238;-63
2023/07/04 08:37:17;;;;;;;;;;;;;;;29.33;36.39;94264.84;4967787;28;7227;-64
2023/07/04 08:39:52;;;;;;;;;;;;;;;29.34;36.54;94263.59;4972163;28;7213;-63
2023/07/04 08:42:30;;;;;;;;;;;;;;;29.34;36.58;94271.91;4984692;28;7284;-63
2023/07/04 08:44:59;;;;;;;;;;;;;;;29.35;37.03;94267.81;4973997;28;7316;-63
2023/07/04 08:47:43;;;;;;;;;;;;;;;29.35;36.36;94265.81;4969250;28;7032;-63
2023/07/04 08:50:36;;;;;;;;;;;;;;;29.35;35.80;94265.81;4970556;28;9169;-63
2023/07/04 08:53:22;;;;;;;;;;;;;;;29.35;36.07;94265.81;4985004;28;9377;-63
2023/07/04 08:56:27;;;;;;;;;;;;;;;29.31;37.04;94259.09;4975670;28;7876;-63
2023/07/04 08:59:33;;;;;;;;;;;;;;;29.36;36.75;94256.19;4968365;28;8951;-62
2023/07/04 09:02:49;;;;;;;;;;;;;;;29.38;35.69;94261.22;4895980;29;9336;-62
2023/07/04 09:05:37;;;;;;;;;;;;;;;29.36;36.28;94261.03;4902114;29;8773;-63
2023/07/04 09:08:40;;;;;;;;;;;;;;;29.35;36.12;94259.50;4894015;29;6904;-62
2023/07/04 09:11:17;;;;;;;;;;;;;;;29.33;36.67;94260.06;4898787;29;9237;-62
2023/07/04 09:14:14;;;;;;;;;;;;;;;29.33;36.28;94256.53;4888414;29;7234;-62
2023/07/04 09:17:12;;;;;;;;;;;;;;;29.39;36.13;94259.91;4894225;29;9877;-63
2023/07/04 09:20:09;;;;;;;;;;;;;;;29.37;36.83;94252.16;4896048;29;7220;-63
2023/07/04 09:22:37;;;;;;;;;;;;;;;29.40;36.58;94256.63;4869595;29;7180;-62
2023/07/04 09:25:13;;;;;;;;;;;;;;;29.41;36.58;94260.13;4870279;29;9293;-62
2023/07/04 09:28:05;;;;;;;;;;;;;;;29.42;37.10;94256.09;4870463;29;8762;-62
2023/07/04 09:30:34;;;;;;;;;;;;;;;29.41;36.46;94251.81;4863080;29;9048;-62
2023/07/04 09:33:01;;;;;;;;;;;;;;;29.41;36.70;94257.34;4853651;29;9147;-62
2023/07/04 09:35:39;;;;;;;;;;;;;;;29.42;36.58;94253.31;4862516;29;7265;-62
2023/07/04 09:38:17;;;;;;;;;;;;;;;29.42;36.27;94253.31;4880513;29;9106;-62
2023/07/04 09:40:50;;;;;;;;;;;;;;;29.43;35.54;94246.47;4910271;29;9120;-62
2023/07/04 09:43:51;;;;;;;;;;;;;;;29.46;35.84;94253.72;4920979;29;9123;-62
2023/07/04 09:46:17;;;;;;;;;;;;;;;29.44;36.76;94245.94;4905506;29;8432;-62
2023/07/04 09:48:46;;;;;;;;;;;;;;;29.46;35.91;94250.94;4909712;29;7202;-62
2023/07/04 09:51:25;;;;;;;;;;;;;;;29.46;36.78;94245.41;4920473;29;7242;-63
2023/07/04 09:54:16;;;;;;;;;;;;;;;29.45;36.68;94244.66;4920282;29;7641;-62
2023/07/04 09:56:43;;;;;;;;;;;;;;;29.44;36.08;94239.66;4919078;29;6968;-62
2023/07/04 09:59:11;;;;;;;;;;;;;;;29.47;35.58;94242.09;4950677;28;9095;-62
2023/07/04 10:01:46;;;;;;;;;;;;;;;29.48;35.58;94242.84;4980370;28;7235;-62
2023/07/04 10:04:25;;;;;;;;;;;;;;;29.50;36.52;94240.25;4961805;28;7339;-60
2023/07/04 10:06:57;;;;;;;;;;;;;;;29.50;35.98;94231.94;4994682;28;7388;-61
2023/07/04 10:09:26;;;;;;;;;;;;;;;29.52;36.07;94234.91;4961849;28;7326;-60
2023/07/04 10:12:09;;;;;;;;;;;;;;;29.54;35.90;94235.13;4965508;28;7067;-60
2023/07/04 10:15:03;;;;;;;;;;;;;;;29.53;35.61;94231.63;4973159;28;9108;-61
2023/07/04 10:17:48;;;;;;;;;;;;;;;29.50;36.87;94226.41;4925392;29;7250;-61
2023/07/04 10:20:39;;;;;;;;;;;;;;;29.53;36.52;94226.09;4931122;29;9436;-61
2023/07/04 10:23:07;;;;;;;;;;;;;;;29.56;35.99;94235.31;4930353;29;7319;-61
2023/07/04 10:25:37;;;;;;;;;;;;;;;29.53;36.35;94230.88;4926333;29;7267;-61
2023/07/04 10:28:12;;;;;;;;;;;;;;;29.57;36.50;94225.72;4910334;29;7217;-61
2023/07/04 10:30:47;;;;;;;;;;;;;;;29.57;35.96;94234.06;4925200;29;9123;-60
2023/07/04 10:33:36;;;;;;;;;;;;;;;29.57;36.12;94226.47;4927236;29;8827;-60
2023/07/04 10:36:05;;;;;;;;;;;;;;;29.54;35.81;94216.47;4930847;29;9714;-61
2023/07/04 10:38:41;;;;;;;;;;;;;;;29.56;36.28;94224.22;4914499;28;7234;-60
2023/07/04 10:42:02;;;;;;;;;;;;;;;29.57;35.97;94225.72;4933044;29;8737;-61
2023/07/04 10:44:34;;;;;;;;;;;;;;;29.55;36.13;94228.31;4883967;29;8855;-61
2023/07/04 10:47:05;;;;;;;;;;;;;;;29.53;36.08;94222.56;4855999;29;7972;-61
2023/07/04 10:49:47;;;;;;;;;;;;;;;29.54;36.32;94218.50;4853966;29;9184;-60
2023/07/04 10:52:23;;;;;;;;;;;;;;;29.54;36.32;94224.78;4881945;29;7284;-60
2023/07/04 10:54:50;;;;;;;;;;;;;;;29.56;35.72;94218.69;4886068;29;7296;-60
2023/07/04 10:57:33;;;;;;;;;;;;;;;29.54;36.22;94215.72;4927294;28;9191;-60
2023/07/04 11:00:26;;;;;;;;;;;;;;;29.54;36.07;94215.72;4916673;29;9291;-61
2023/07/04 11:03:01;;;;;;;;;;;;;;;29.52;36.74;94209.97;4917524;29;8816;-61
2023/07/04 11:05:51;;;;;;;;;;;;;;;29.55;36.28;94211.69;4899012;29;7308;-61
2023/07/04 11:08:28;;;;;;;;;;;;;;;29.54;36.26;94210.94;4916373;29;7320;-60
2023/07/04 11:11:18;;;;;;;;;;;;;;;29.50;35.44;94199.44;4914584;29;9442;-61
2023/07/04 11:13:58;;;;;;;;;;;;;;;29.53;35.70;94208.72;4909975;29;9075;-54
2023/07/04 11:16:42;;;;;;;;;;;;;;;29.54;36.19;94205.38;4914701;29;9057;-54
2023/07/04 11:19:23;;;;;;;;;;;;;;;29.54;35.38;94202.63;4938029;28;7287;-54
2023/07/04 11:22:03;;;;;;;;;;;;;;;29.59;36.18;94212.06;4984601;28;7471;-54
2023/07/04 11:24:43;;;;;;;;;;;;;;;29.62;35.55;94199.91;4987110;28;8729;-54
2023/07/04 11:27:32;;;;;;;;;;;;;;;29.61;35.46;94195.66;4985551;28;7017;-54
2023/07/04 11:30:03;;;;;;;;;;;;;;;29.62;35.61;94197.88;4962162;28;7253;-54
2023/07/04 11:32:38;;;;;;;;;;;;;;;29.62;35.74;94188.84;4982125;28;7284;-54
2023/07/04 11:35:10;;;;;;;;;;;;;;;29.62;35.78;94199.91;4980628;28;7281;-54
2023/07/04 11:37:54;;;;;;;;;;;;;;;29.64;35.65;94195.31;4964943;28;6990;-54
2023/07/04 11:40:32;;;;;;;;;;;;;;;29.62;34.80;94195.09;4965011;28;7294;-52
2023/07/04 11:43:28;;;;;;;;;;;;;;;29.63;34.94;94195.84;4973809;28;8612;-52
2023/07/04 11:46:00;;;;;;;;;;;;;;;29.65;35.84;94194.03;4982749;28;9128;-53
2023/07/04 11:48:34;;;;;;;;;;;;;;;29.65;35.57;94182.94;4998982;28;6989;-53
2023/07/04 11:51:10;;;;;;;;;;;;;;;29.66;34.81;94189.97;4984332;28;8784;-52
2023/07/04 11:53:48;;;;;;;;;;;;;;;29.66;35.22;94178.13;4982779;28;7843;-54
2023/07/04 11:56:26;;;;;;;;;;;;;;;29.68;34.58;94173.53;4984504;28;7273;-52
2023/07/04 11:59:18;;;;;;;;;;;;;;;29.75;34.21;94169.38;4981442;28;8756;-53
2023/07/04 12:01:55;;;;;;;;;;;;;;;29.77;34.87;94169.56;4984250;28;9082;-53
2023/07/04 12:04:50;;;;;;;;;;;;;;;29.77;33.86;94167.53;4982701;28;8705;-54
2023/07/04 12:07:43;;;;;;;;;;;;;;;29.75;34.81;94166.59;4982072;28;6856;-54
2023/07/04 12:10:17;;;;;;;;;;;;;;;29.75;34.13;94159.00;4979661;28;7167;-52
2023/07/04 12:12:47;;;;;;;;;;;;;;;29.81;34.35;94167.19;4965976;28;7402;-53
2023/07/04 12:15:31;;;;;;;;;;;;;;;29.82;34.62;94151.31;4979311;28;7220;-54
2023/07/04 12:18:24;;;;;;;;;;;;;;;29.85;34.40;94164.06;4968025;28;8923;-53
2023/07/04 12:20:53;;;;;;;;;;;;;;;29.85;33.97;94159.25;4976220;28;9039;-54
2023/07/04 12:23:23;;;;;;;;;;;;;;;29.87;35.22;94162.22;4998142;28;9350;-54
2023/07/04 12:25:54;;;;;;;;;;;;;;;29.88;34.23;94157.44;4981814;28;8775;-55
2023/07/04 12:28:26;;;;;;;;;;;;;;;29.89;34.75;94156.88;4981899;28;9157;-55
2023/07/04 12:31:06;;;;;;;;;;;;;;;29.89;34.97;94151.34;4968669;28;7213;-55
2023/07/04 12:33:44;;;;;;;;;;;;;;;29.90;34.84;94147.28;4968729;28;9111;-55
2023/07/04 12:36:19;;;;;;;;;;;;;;;29.93;35.08;94148.94;4983394;28;7192;-55
2023/07/04 12:38:54;;;;;;;;;;;;;;;29.89;34.21;94140.25;4984169;28;7125;-55
2023/07/04 12:41:23;;;;;;;;;;;;;;;29.89;34.90;94142.25;4968850;28;7997;-55
2023/07/04 12:44:12;;;;;;;;;;;;;;;29.89;34.24;94131.94;4987078;28;7252;-55
2023/07/04 12:47:14;;;;;;;;;;;;;;;29.89;35.06;94140.25;4998888;28;8447;-55
2023/07/04 12:49:54;;;;;;;;;;;;;;;29.91;34.65;94136.91;4934183;28;7068;-56
2023/07/04 12:52:31;;;;;;;;;;;;;;;29.92;34.49;94132.88;4944755;28;7354;-55
2023/07/04 12:55:33;;;;;;;;;;;;;;;29.92;34.64;94133.63;4942021;28;9043;-55
2023/07/04 12:58:14;;;;;;;;;;;;;;;29.94;34.96;94144.16;4928534;28;7274;-55
2023/07/04 13:00:57;;;;;;;;;;;;;;;29.92;34.67;94138.41;4934037;28;7721;-55
2023/07/04 13:03:26;;;;;;;;;;;;;;;29.93;34.29;94131.59;4942405;28;8789;-56
2023/07/04 13:06:08;;;;;;;;;;;;;;;29.94;34.87;94133.06;4945303;28;7215;-55
2023/07/04 13:08:58;;;;;;;;;;;;;;;29.96;34.67;94134.00;4945713;28;6961;-55
2023/07/04 13:11:26;;;;;;;;;;;;;;;30.00;35.09;94128.09;4945701;28;8828;-55
2023/07/04 13:14:10;;;;;;;;;;;;;;;30.02;34.47;94119.97;4947030;28;7220;-55
2023/07/04 13:17:08;;;;;;;;;;;;;;;30.04;34.84;94120.16;4926630;28;7527;-55
2023/07/04 13:19:46;;;;;;;;;;;;;;;30.06;35.58;94123.16;4928275;28;9107;-55
2023/07/04 13:22:25;;;;;;;;;;;;;;;30.05;35.27;94125.19;4942068;28;7230;-56
2023/07/04 13:25:36;;;;;;;;;;;;;;;30.12;35.07;94126.50;4958793;28;8653;-55
2023/07/04 13:28:34;;;;;;;;;;;;;;;30.13;35.44;94119.66;4983552;28;8856;-55
2023/07/04 13:31:38;;;;;;;;;;;;;;;30.16;35.45;94122.09;4946285;28;7141;-56
2023/07/04 13:34:41;;;;;;;;;;;;;;;30.20;34.76;94121.72;4931502;28;9751;-60
2023/07/04 13:37:36;;;;;;;;;;;;;;;30.23;34.67;94113.03;4850150;29;7039;-60
2023/07/04 13:40:15;;;;;;;;;;;;;;;30.24;35.47;94117.31;4862767;29;7378;-60
2023/07/04 13:43:09;;;;;;;;;;;;;;;30.20;34.32;94118.97;4860455;29;7216;-61
2023/07/04 13:46:05;;;;;;;;;;;;;;;30.21;35.22;94115.63;4863492;29;8775;-61
2023/07/04 13:48:47;;;;;;;;;;;;;;;30.22;34.98;94113.59;4772547;29;9092;-61
2023/07/04 13:51:13;;;;;;;;;;;;;;;30.20;34.55;94108.63;4771353;30;7246;-61
2023/07/04 13:54:00;;;;;;;;;;;;;;;30.20;35.08;94100.28;4761806;30;7906;-61